Terminal Aerodrome Forecast
Issued by NWS

Home | Current Version | Previous Version | Text Only | Print | Product List | Glossary On
Versions: 1 2 3 4 5 6 7 8 9 10 11 12 13 14 15 16
000
FTUS41 KLWX 042340
TAFMTN
TAF
KMTN 042340Z 0500/0524 31005KT P6SM VCTS BKN040CB
      TEMPO 0500/0501 VRB20KT 2SM TSRA BR BKN020CB
     FM050300 01004KT P6SM SCT070
     FM051500 31007KT P6SM FEW250
     FM051800 29011KT P6SM FEW250
      AMD NOT SKED 0502/0512=

USA.gov is the U.S. government's official web portal to all federal, state and local government web resources and services.